createdAt,value
2019-04-26T00:02:01.693Z,928.5
2019-04-26T00:04:56.174Z,928.5
2019-04-26T00:07:51.598Z,928.5
2019-04-26T00:10:47.732Z,928.3
2019-04-26T00:13:42.586Z,928.2
2019-04-26T00:16:38.090Z,928.3
2019-04-26T00:19:34.640Z,928.5
2019-04-26T00:22:28.955Z,928.5
2019-04-26T00:25:24.409Z,928.5
2019-04-26T00:28:19.915Z,928.5
2019-04-26T00:31:15.912Z,928.4
2019-04-26T00:34:13.939Z,928.4
2019-04-26T00:37:06.124Z,928.5
2019-04-26T00:40:01.573Z,928.4
2019-04-26T00:42:58.439Z,928.3
2019-04-26T00:45:52.425Z,928.4
2019-04-26T00:48:47.852Z,928.4
2019-04-26T00:51:43.249Z,928.2
2019-04-26T00:54:38.646Z,928.3
2019-04-26T00:57:33.991Z,928.3
2019-04-26T01:00:29.405Z,928.2
2019-04-26T01:03:25.746Z,928.3
2019-04-26T01:06:21.246Z,928.3
2019-04-26T01:09:17.769Z,928.3
2019-04-26T01:12:10.933Z,928.1
2019-04-26T01:15:06.257Z,928.1
2019-04-26T01:18:01.659Z,928
2019-04-26T01:20:57.031Z,927.3
2019-04-26T01:23:52.406Z,928
2019-04-26T01:26:47.814Z,928
2019-04-26T01:29:43.199Z,928
2019-04-26T01:32:38.503Z,928
2019-04-26T01:41:24.800Z,927.9
2019-04-26T01:44:23.034Z,927.8
2019-04-26T01:47:15.440Z,927.8
2019-04-26T01:50:10.708Z,927.7
2019-04-26T01:53:06.102Z,927.9
2019-04-26T01:56:01.487Z,927.8
2019-04-26T01:58:56.899Z,927.8
2019-04-26T02:01:52.274Z,927.7
2019-04-26T02:04:47.690Z,927.8
2019-04-26T02:10:38.499Z,927.7
2019-04-26T02:13:33.928Z,927.7
2019-04-26T02:16:29.947Z,926.3
2019-04-26T02:19:26.064Z,927.7
2019-04-26T02:22:20.003Z,927.5
2019-04-26T02:25:15.243Z,927.7
2019-04-26T02:28:10.700Z,927.5
2019-04-26T02:31:06.174Z,927.6
2019-04-26T02:34:01.406Z,927.5
2019-04-26T02:36:59.698Z,927.5
2019-04-26T02:39:51.953Z,927.4
2019-04-26T02:42:47.373Z,927.3
2019-04-26T02:45:42.695Z,927.2
2019-04-26T02:48:38.689Z,927.5
2019-04-26T02:51:38.636Z,927.5
2019-04-26T02:54:38.116Z,927.5
2019-04-26T02:57:23.970Z,927.5
2019-04-26T03:00:19.315Z,927.7
2019-04-26T03:03:14.618Z,927.5
2019-04-26T03:06:09.811Z,927.7
2019-04-26T03:09:05.285Z,927.9
2019-04-26T03:12:03.161Z,927.8
2019-04-26T03:15:15.061Z,927.7
2019-04-26T03:20:46.411Z,927.7
2019-04-26T03:23:59.986Z,928
2019-04-26T03:26:43.681Z,928.1
2019-04-26T03:29:43.874Z,928.3
2019-04-26T03:32:27.605Z,928.4
2019-04-26T03:35:22.870Z,928.6
2019-04-26T03:38:18.095Z,928.5
2019-04-26T03:44:08.609Z,928.6
2019-04-26T03:47:03.869Z,928.6
2019-04-26T03:49:59.168Z,928.6
2019-04-26T03:52:54.219Z,928.7
2019-04-26T03:55:49.457Z,927.5
2019-04-26T03:58:46.043Z,928.8
2019-04-26T04:01:46.418Z,929
2019-04-26T04:04:44.777Z,929.2
2019-04-26T04:07:51.827Z,929
2019-04-26T04:16:16.130Z,927.8
2019-04-26T04:19:14.190Z,929.2
2019-04-26T04:22:06.585Z,927.8
2019-04-26T04:25:01.853Z,929.3
2019-04-26T04:27:57.025Z,929.2
2019-04-26T04:30:52.276Z,929.4
2019-04-26T04:33:50.001Z,929.4
2019-04-26T04:36:53.910Z,929.5
2019-04-26T04:39:37.938Z,929.4
2019-04-26T04:42:33.177Z,929.7
2019-04-26T04:45:28.399Z,929.9
2019-04-26T04:48:23.683Z,929.9
2019-04-26T04:51:18.866Z,929.9
2019-04-26T04:54:14.092Z,929.9
2019-04-26T05:00:04.563Z,929.8
2019-04-26T05:02:59.797Z,930
2019-04-26T05:06:08.398Z,930
2019-04-26T05:08:54.283Z,930.1
2019-04-26T05:11:47.611Z,930.1
2019-04-26T05:14:40.771Z,930
2019-04-26T05:17:36.027Z,930.3
2019-04-26T05:20:31.148Z,930.3
2019-04-26T05:23:26.383Z,930.1
2019-04-26T05:26:21.597Z,928.9
2019-04-26T05:29:16.785Z,930.2
2019-04-26T05:32:11.991Z,930.4
2019-04-26T05:35:07.193Z,930.4
2019-04-26T05:38:02.539Z,930.3
2019-04-26T05:40:58.461Z,930.6
2019-04-26T05:43:54.218Z,930.5
2019-04-26T05:46:48.060Z,930.5
2019-04-26T05:49:43.263Z,930.4
2019-04-26T05:52:38.487Z,930.5
2019-04-26T05:55:33.733Z,930.7
2019-04-26T05:58:28.970Z,930.8
2019-04-26T06:01:24.210Z,929.3
2019-04-26T06:04:19.413Z,930.5
2019-04-26T06:07:14.684Z,930.7
2019-04-26T06:10:09.820Z,930.7
2019-04-26T06:13:05.135Z,930.5
2019-04-26T06:16:00.859Z,930.6
2019-04-26T06:18:55.863Z,930.7
2019-04-26T06:21:54.081Z,930.8
2019-04-26T06:24:46.152Z,930.9
2019-04-26T06:27:41.328Z,930.7
2019-04-26T06:30:46.159Z,930.9
2019-04-26T06:33:31.828Z,931
2019-04-26T06:36:27.093Z,931
2019-04-26T06:39:22.314Z,931.1
2019-04-26T06:42:17.600Z,931.1
2019-04-26T06:45:12.886Z,929.7
2019-04-26T06:48:08.088Z,931.1
2019-04-26T06:51:03.446Z,931
2019-04-26T06:53:59.368Z,931.1
2019-04-26T06:56:53.898Z,929.9
2019-04-26T06:59:49.068Z,931.1
2019-04-26T07:02:44.268Z,929.7
2019-04-26T07:05:39.476Z,931
2019-04-26T07:08:34.678Z,931.1
2019-04-26T07:11:29.888Z,931.1
2019-04-26T07:14:25.066Z,931.1
2019-04-26T07:20:15.448Z,931.2
2019-04-26T07:23:10.644Z,931.2
2019-04-26T07:26:06.591Z,931.3
2019-04-26T07:29:04.575Z,931.2
2019-04-26T07:31:56.306Z,931.4
2019-04-26T07:34:51.532Z,931.5
2019-04-26T07:37:46.774Z,931.4
2019-04-26T07:40:41.989Z,931.3
2019-04-26T07:43:37.306Z,929.9
2019-04-26T07:46:32.471Z,931.5
2019-04-26T07:49:27.684Z,931.5
2019-04-26T07:52:22.967Z,931.6
2019-04-26T07:55:18.158Z,931.6
2019-04-26T07:58:13.842Z,931.7
2019-04-26T08:01:08.585Z,931
2019-04-26T08:04:05.645Z,931.9
2019-04-26T08:06:58.979Z,931.8
2019-04-26T08:10:00.749Z,931.8
2019-04-26T08:12:49.411Z,931.9
2019-04-26T08:15:44.637Z,931.8
2019-04-26T08:18:39.857Z,931.6
2019-04-26T08:21:34.921Z,932
2019-04-26T08:24:30.113Z,931.9
2019-04-26T08:27:25.148Z,932.1
2019-04-26T08:30:23.378Z,932.1
2019-04-26T08:33:16.689Z,932.2
2019-04-26T08:36:11.260Z,932
2019-04-26T08:39:08.383Z,932.1
2019-04-26T08:42:00.729Z,932.1
2019-04-26T08:44:55.871Z,932
2019-04-26T08:47:54.204Z,932.2
2019-04-26T08:50:47.371Z,932.2
2019-04-26T08:53:41.410Z,931
2019-04-26T08:56:36.550Z,932.1
2019-04-26T08:59:31.748Z,932.3
2019-04-26T09:02:26.968Z,932.3
2019-04-26T09:05:22.164Z,932.4
2019-04-26T09:08:17.363Z,932.4
2019-04-26T09:11:35.255Z,932.3
2019-04-26T09:14:07.817Z,932.4
2019-04-26T09:17:03.088Z,932.2
2019-04-26T09:19:58.999Z,932.5
2019-04-26T09:23:05.312Z,932.5
2019-04-26T09:25:59.891Z,932.6
2019-04-26T09:28:44.032Z,932.5
2019-04-26T09:31:39.286Z,932.5
2019-04-26T09:34:34.779Z,932.5
2019-04-26T09:37:29.724Z,932.5
2019-04-26T09:40:25.052Z,932.5
2019-04-26T09:43:20.193Z,932.5
2019-04-26T09:46:15.502Z,932.5
2019-04-26T09:49:10.785Z,932.5
2019-04-26T09:52:06.021Z,932.5
2019-04-26T09:55:01.247Z,931.7
2019-04-26T09:57:58.503Z,932.6
2019-04-26T10:06:42.274Z,932.6
2019-04-26T10:09:37.517Z,932.4
2019-04-26T10:12:32.807Z,932.6
2019-04-26T10:15:28.911Z,932.6
2019-04-26T10:18:26.305Z,932.5
2019-04-26T10:21:18.562Z,932.5
2019-04-26T10:24:13.813Z,932.4
2019-04-26T10:30:09.992Z,932.6
2019-04-26T10:33:03.871Z,932.7
2019-04-26T10:35:58.222Z,932.6
2019-04-26T10:41:45.496Z,932.8
2019-04-26T10:44:41.811Z,932.9
2019-04-26T10:47:40.233Z,933
2019-04-26T10:50:34.795Z,932.9
2019-04-26T10:53:32.335Z,933
2019-04-26T10:56:25.696Z,933
2019-04-26T10:59:16.858Z,933
2019-04-26T11:02:14.907Z,932.8
2019-04-26T11:05:07.314Z,931.9
2019-04-26T11:08:02.568Z,933.1
2019-04-26T11:10:57.781Z,933
2019-04-26T11:13:52.976Z,932.9
2019-04-26T11:19:44.999Z,933.5
2019-04-26T11:22:39.846Z,933.6
2019-04-26T11:28:29.080Z,933.7
2019-04-26T11:31:29.640Z,933.9
2019-04-26T11:34:25.514Z,934.1
2019-04-26T11:37:19.837Z,934.2
2019-04-26T11:40:16.334Z,934.1
2019-04-26T11:43:05.052Z,934
2019-04-26T11:46:05.979Z,934
2019-04-26T11:49:08.498Z,934.2
2019-04-26T11:51:50.410Z,934
2019-04-26T11:54:45.541Z,934.1
2019-04-26T11:57:49.328Z,934.3
2019-04-26T12:00:35.733Z,934.3
2019-04-26T12:06:25.853Z,934.4
2019-04-26T12:09:20.934Z,934.7
2019-04-26T12:12:16.046Z,934.9
2019-04-26T12:18:11.723Z,934.8
2019-04-26T12:21:02.705Z,934.7
2019-04-26T12:23:57.085Z,934.7
2019-04-26T12:26:57.776Z,934.8
2019-04-26T12:29:50.169Z,934.7
2019-04-26T12:32:41.925Z,934.9
2019-04-26T12:35:37.069Z,934.9
2019-04-26T12:41:41.253Z,935.1
2019-04-26T12:44:22.486Z,934.8
2019-04-26T12:47:17.600Z,935
2019-04-26T12:50:12.766Z,935.1
2019-04-26T12:53:07.906Z,935.1
2019-04-26T12:56:03.094Z,935.4
2019-04-26T12:58:58.215Z,934.7
2019-04-26T13:02:06.622Z,935.3
2019-04-26T13:04:48.464Z,935.1
2019-04-26T13:07:45.058Z,935.4
2019-04-26T13:16:28.877Z,935.4
2019-04-26T13:25:40.861Z,935.5
2019-04-26T13:28:09.088Z,935.4
2019-04-26T13:31:04.160Z,935.4
2019-04-26T13:34:05.026Z,935.5
2019-04-26T13:36:54.328Z,935.6
2019-04-26T13:39:56.949Z,934
2019-04-26T13:42:52.753Z,935.7
2019-04-26T13:45:39.443Z,935.8
2019-04-26T13:48:34.367Z,935.9
2019-04-26T13:51:29.362Z,935.9
2019-04-26T13:54:24.339Z,934.4
2019-04-26T13:57:19.304Z,934.9
2019-04-26T14:00:14.244Z,936
2019-04-26T14:03:09.188Z,935.7
2019-04-26T14:06:04.166Z,935.5
2019-04-26T14:09:03.522Z,935.9
2019-04-26T14:11:54.085Z,935.6
2019-04-26T14:14:49.060Z,934.1
2019-04-26T14:17:43.971Z,935.9
2019-04-26T14:20:38.982Z,934.9
2019-04-26T14:23:34.328Z,936
2019-04-26T14:26:28.943Z,935.9
2019-04-26T14:29:23.967Z,934.4
2019-04-26T14:32:24.565Z,935.8
2019-04-26T14:35:17.835Z,935.8
2019-04-26T14:38:08.932Z,935.7
2019-04-26T14:41:05.935Z,935.9
2019-04-26T14:46:58.322Z,936
2019-04-26T14:52:43.944Z,934.2
2019-04-26T14:55:38.960Z,935.7
2019-04-26T14:58:34.401Z,935.7
2019-04-26T15:01:35.625Z,935.7
2019-04-26T15:04:29.414Z,935.7
2019-04-26T15:07:19.041Z,935.5
2019-04-26T15:13:23.855Z,935.8
2019-04-26T15:16:14.711Z,935.8
2019-04-26T15:18:59.177Z,935.7
2019-04-26T15:21:54.191Z,935.8
2019-04-26T15:24:49.267Z,936
2019-04-26T15:27:44.904Z,934.8
2019-04-26T15:30:47.411Z,936.1
2019-04-26T15:33:36.646Z,936.1
2019-04-26T15:36:29.421Z,935.9
2019-04-26T15:42:19.638Z,935.8
2019-04-26T15:45:14.749Z,935.9
2019-04-26T15:48:09.851Z,935.3
2019-04-26T15:51:04.967Z,934.3
2019-04-26T15:54:00.086Z,935.8
2019-04-26T15:59:50.379Z,934.6
2019-04-26T16:02:45.546Z,935.9
2019-04-26T16:05:40.643Z,935.9
2019-04-26T16:08:44.293Z,935.9
2019-04-26T16:11:30.910Z,935.9
2019-04-26T16:14:37.342Z,935.9
2019-04-26T16:17:21.115Z,935.7
2019-04-26T16:20:16.245Z,935.6
2019-04-26T16:23:14.122Z,935.7
2019-04-26T16:26:15.711Z,935.8
2019-04-26T16:29:01.594Z,935.8
2019-04-26T16:31:56.735Z,935.8
2019-04-26T16:34:53.708Z,935.9
2019-04-26T16:37:46.952Z,935.9
2019-04-26T16:40:55.449Z,935.9
2019-04-26T16:43:55.017Z,936
2019-04-26T16:46:34.032Z,936
2019-04-26T16:49:27.849Z,935.9
2019-04-26T16:52:24.639Z,935.7
2019-04-26T16:57:24.462Z,935.8
2019-04-26T17:01:15.772Z,935.8
2019-04-26T17:04:24.353Z,935.8
2019-04-26T17:07:05.593Z,935.7
2019-04-26T17:10:00.409Z,935.8
2019-04-26T17:12:54.749Z,935.7
2019-04-26T17:15:43.622Z,935.6
2019-04-26T17:18:38.402Z,935.7
2019-04-26T17:21:35.393Z,935.7
2019-04-26T17:24:28.546Z,935.5
2019-04-26T17:27:23.629Z,935.6
2019-04-26T17:30:18.719Z,935.7
2019-04-26T17:33:13.889Z,935.8
2019-04-26T17:36:17.552Z,935.7
2019-04-26T17:39:03.903Z,935.5
2019-04-26T17:41:58.987Z,935.5
2019-04-26T17:45:07.391Z,935.7
2019-04-26T17:47:52.939Z,935.7
2019-04-26T17:54:20.973Z,935.5
2019-04-26T17:56:42.624Z,935.4
2019-04-26T17:59:51.451Z,935.3
2019-04-26T18:02:51.049Z,935.5
2019-04-26T18:05:59.401Z,935.2
2019-04-26T18:08:55.351Z,935.4
2019-04-26T18:11:25.306Z,935.5
2019-04-26T18:14:29.536Z,935.4
2019-04-26T18:17:04.932Z,935.5
2019-04-26T18:19:54.573Z,935.6
2019-04-26T18:22:49.576Z,935.4
2019-04-26T18:25:46.844Z,935.7
2019-04-26T18:28:44.654Z,935
2019-04-26T18:31:34.764Z,935.2
2019-04-26T18:34:40.978Z,935.8
2019-04-26T18:37:28.101Z,935.8
2019-04-26T18:40:23.473Z,935.8
2019-04-26T18:43:28.018Z,935.9
2019-04-26T18:46:13.126Z,935.8
2019-04-26T18:49:22.761Z,935.9
2019-04-26T18:52:00.160Z,935.9
2019-04-26T18:55:08.196Z,935.8
2019-04-26T18:58:05.941Z,936
2019-04-26T19:00:45.319Z,936.1
2019-04-26T19:03:40.334Z,935.9
2019-04-26T19:06:43.738Z,936.1
2019-04-26T19:10:05.546Z,936.1
2019-04-26T19:12:27.873Z,936.1
2019-04-26T19:15:22.276Z,936.2
2019-04-26T19:18:18.950Z,936.1
2019-04-26T19:21:12.301Z,936.1
2019-04-26T19:24:23.220Z,936.1
2019-04-26T19:27:04.496Z,936.2
2019-04-26T19:29:55.705Z,936.2
2019-04-26T19:32:54.199Z,936.3
2019-04-26T19:35:48.189Z,936.3
2019-04-26T19:38:53.458Z,936.2
2019-04-26T19:41:35.935Z,936.2
2019-04-26T19:44:32.469Z,936.3
2019-04-26T19:47:26.189Z,936.2
2019-04-26T19:50:22.609Z,936.3
2019-04-26T19:53:28.125Z,936.4
2019-04-26T19:56:11.198Z,936.4
2019-04-26T19:59:05.947Z,936.2
2019-04-26T20:04:55.901Z,936.4
2019-04-26T20:07:52.629Z,936.3
2019-04-26T20:10:46.621Z,936.4
2019-04-26T20:13:54.938Z,936.4
2019-04-26T20:16:43.653Z,936.3
2019-04-26T20:19:38.045Z,936.4
2019-04-26T20:22:35.304Z,936.4
2019-04-26T20:25:31.092Z,936.4
2019-04-26T20:28:23.136Z,936.4
2019-04-26T20:31:12.527Z,936.4
2019-04-26T20:34:18.689Z,936.3
2019-04-26T20:37:03.846Z,936.3
2019-04-26T20:40:25.963Z,936.3
2019-04-26T20:43:20.152Z,936.1
2019-04-26T20:46:16.192Z,935.6
2019-04-26T20:48:42.395Z,936.4
2019-04-26T20:51:35.327Z,936.4
2019-04-26T20:54:34.591Z,936.3
2019-04-26T20:57:34.807Z,936.1
2019-04-26T21:00:22.402Z,936.2
2019-04-26T21:03:28.291Z,936.1
2019-04-26T21:06:12.142Z,936.1
2019-04-26T21:09:09.559Z,936.1
2019-04-26T21:12:03.063Z,936.1
2019-04-26T21:15:02.752Z,936.2
2019-04-26T21:17:51.690Z,935.6
2019-04-26T21:20:44.894Z,936.3
2019-04-26T21:23:53.727Z,936.3
2019-04-26T21:26:34.804Z,935.8
2019-04-26T21:29:29.779Z,936.3
2019-04-26T21:32:37.723Z,936.1
2019-04-26T21:35:31.511Z,936.3
2019-04-26T21:38:14.630Z,936.2
2019-04-26T21:41:14.636Z,936.2
2019-04-26T21:44:16.094Z,936.3
2019-04-26T21:47:03.386Z,936.3
2019-04-26T21:50:01.192Z,936.4
2019-04-26T21:52:49.224Z,936.1
2019-04-26T21:55:44.219Z,936.2
2019-04-26T22:01:33.972Z,936.4
2019-04-26T22:04:38.045Z,936.4
2019-04-26T22:07:24.922Z,936.3
2019-04-26T22:10:18.728Z,934.8
2019-04-26T22:13:14.645Z,936.4
2019-04-26T22:16:38.435Z,936.3
2019-04-26T22:19:04.579Z,936.4
2019-04-26T22:22:07.262Z,936.5
2019-04-26T22:24:55.987Z,936.4
2019-04-26T22:27:48.208Z,936.2
2019-04-26T22:30:43.102Z,936.2
2019-04-26T22:36:36.256Z,936.2
2019-04-26T22:39:40.025Z,936.3
2019-04-26T22:42:24.593Z,936.3
2019-04-26T22:45:17.611Z,936.2
2019-04-26T22:48:25.971Z,936.3
2019-04-26T22:51:07.439Z,936.2
2019-04-26T22:54:06.765Z,936.2
2019-04-26T22:56:57.222Z,935.3
2019-04-26T22:59:54.083Z,936
2019-04-26T23:02:47.076Z,936
2019-04-26T23:08:38.920Z,936.1
2019-04-26T23:11:33.569Z,936.3
2019-04-26T23:14:26.671Z,935.6
2019-04-26T23:17:32.865Z,936.1
2019-04-26T23:20:16.491Z,936.1
2019-04-26T23:26:08.028Z,936.2
2019-04-26T23:29:01.278Z,936.3
2019-04-26T23:31:56.288Z,936.4
2019-04-26T23:34:51.141Z,935.8
2019-04-26T23:37:46.043Z,936.3
2019-04-26T23:40:40.957Z,936.3
2019-04-26T23:43:35.881Z,936.2
2019-04-26T23:46:30.775Z,936.2
2019-04-26T23:52:20.566Z,935.3
2019-04-26T23:58:14.231Z,936.3
